Meteo Giornale » Osservazioni meteo Italia » Cagliari-Elmas

ore: 08:50 - Osservazioni Meteo Cagliari-Elmas
Lat. 39° 15' N Lon. 9° 4' E Alt. 4 metri s.l.m.

sereno Europe/Rome

20 °C

Sereno

Temp. 24 Ore

14 °C

27 °C

Nord

5.5 Km/h

Dew point 14 °C

Umidità 68 %

Visibilità  10 Km

Il sole sorge alle ore 05:58

Il sole tramonta alle ore 20:44

Data e Ora Cielo e Fenomeni T °C DP °C Um. % Pres. hPa Vis. km Vento km/h
Oggi h: 08:50 sereno Sereno 20 14 68 1017 10 N 5.5
Oggi h: 08:20 sereno Sereno 19 13 68 1017 10 O/NO 9.3
Oggi h: 07:50 sereno Sereno 17 11 67 1017 10 N 3.7
Oggi h: 07:20 sereno Sereno 16 10 67 1017 10 N 3.7
Oggi h: 06:20 sereno Sereno 14 10 76 1016 10 N 7.4
Oggi h: 05:50 sereno Sereno 14 10 76 1016 10 NO 7.4
Oggi h: 05:20 sereno Sereno 16 12 77 1016 10 O/NO 7.4
Oggi h: 04:50 sereno Sereno 15 10 72 1016 10 NO 9.3
Oggi h: 04:20 sereno Sereno 16 11 72 1016 10 N 5.5
Oggi h: 03:50 sereno Sereno 16 10 67 1016 10 N 5.5
Oggi h: 03:20 sereno Sereno 16 11 72 1016 10 N 3.7
Oggi h: 02:50 sereno Sereno 16 11 72 1016 10 N 3.7
Oggi h: 02:20 sereno Sereno 16 11 72 1016 10 N 5.5
Oggi h: 01:50 sereno Sereno 17 11 67 1016 10 NE 7.4
Oggi h: 01:20 sereno Sereno 20 12 59 1016 10 S/SE 7.4
Oggi h: 00:50 sereno Sereno 21 12 56 1016 10 S/SE 9.3
Oggi h: 00:20 sereno Sereno 21 13 60 1017 10 S 9.3
Ieri h: 23:50 sereno Sereno 21 15 68 1017 10 S 9.3
Ieri h: 23:20 sereno Sereno 21 14 64 1017 10 S/SE 9.3
Ieri h: 22:50 sereno Sereno 21 18 82 1017 10 S 16.7
Ieri h: 22:20 sereno Sereno 21 14 64 1017 10 S 13
Ieri h: 21:50 sereno Sereno 22 12 53 1016 10 S/SE 14.8
Ieri h: 21:20 sereno Sereno 22 14 60 1016 10 SE 18.5
Ieri h: 20:50 sereno Sereno 22 14 60 1016 10 S/SE 18.5
Ieri h: 20:20 sereno Sereno 23 15 60 1016 10 S/SE 20.3
Ieri h: 19:50 sereno Sereno 23 15 60 1016 10 S/SE 20.3
Ieri h: 19:20 sereno Sereno 24 15 57 1016 10 S/SE 22.2
Ieri h: 18:50 sereno Sereno 26 8 31 1016 10 SE 24
Ieri h: 18:20 sereno Sereno 26 11 39 1016 10 SE 24
Ieri h: 17:50 sereno Sereno 25 11 41 1016 10 SE 25.9
Ieri h: 17:20 sereno Sereno 26 11 39 1016 10 SE 27.8
Ieri h: 16:50 sereno Sereno 26 11 39 1016 10 S/SE 25.9
Ieri h: 16:20 sereno Sereno 26 11 39 1016 10 S/SE 27.8
Ieri h: 15:50 sereno Sereno 26 10 36 1016 10 S/SE 27.8
Ieri h: 15:20 sereno Sereno 26 10 36 1016 10 S/SE 29.6
Ieri h: 14:50 sereno Sereno 26 11 39 1017 10 S/SE 29.6
Ieri h: 14:20 sereno Sereno 27 12 39 1017 10 S/SE 24
Ieri h: 13:50 sereno Sereno 27 10 34 1017 10 S/SE 27.8
Ieri h: 13:20 sereno Sereno 26 11 39 1017 10 S/SE 29.6
Ieri h: 12:50 sereno Sereno 27 11 36 1017 10 SE 27.8
Ieri h: 12:20 sereno Sereno 26 13 44 1017 10 SE 27.8
Ieri h: 11:50 sereno Sereno 26 12 41 1017 10 S/SE 27.8
Ieri h: 11:20 sereno Sereno 25 10 38 1017 10 SE 25.9
Ieri h: 10:50 sereno Sereno 25 12 44 1017 10 S/SE 16.7
Ieri h: 10:20 sereno Sereno 25 10 38 1017 10 S/SE 14.8
Ieri h: 09:50 sereno Sereno 25 9 36 1017 10 S/SE 9.3